This is the latest recevied weather packets stored in our database for station/object IZ3ZOD-13. If no packets are shown the sender has not sent any weather packets the latest 10 day(s).
| Time | Temp. | Humidity | Pressure | Rain* | Wind** | Luminosity | Snow |
|---|---|---|---|---|---|---|---|
| 1777109763 | 21.67° C | 50% | 1016.5 hPa | 0 mm | - | - | - |
| 1777108804 | 21.11° C | 51% | 1016.5 hPa | 0 mm | - | - | - |
| 1777108564 | 21.11° C | 52% | 1016.6 hPa | 0 mm | - | - | - |
| 1777107844 | 20° C | 54% | 1016.5 hPa | 0 mm | - | - | - |
| 1777107604 | 20.56° C | 50% | 1016.5 hPa | 0 mm | - | - | - |
| 1777106643 | 20° C | 58% | 1016.6 hPa | 0 mm | - | - | - |
| 1777104964 | 18.89° C | 63% | 1016.6 hPa | 0 mm | - | - | - |
| 1777104244 | 18.89° C | 65% | 1016.7 hPa | 0 mm | - | - | - |
| 1777102803 | 18.33° C | 70% | 1016.5 hPa | 0 mm | - | - | - |
| 1777102694 | 18.33° C | 70% | 1016.8 hPa | 0 mm | - | - | - |
| 1777100404 | 16.67° C | 72% | 1016.8 hPa | 0 mm | - | - | - |
| 1777097523 | 14.44° C | 74% | 1016.9 hPa | 0 mm | - | - | - |
| 1777096803 | 13.89° C | 76% | 1016.6 hPa | 0 mm | - | - | - |
| 1777092963 | 10.56° C | 90% | 1016 hPa | 0 mm | - | - | - |
| 1777090083 | 9.44° C | 92% | 1015.4 hPa | 0 mm | - | - | - |
| 1777089123 | 9.44° C | 92% | 1015.5 hPa | 0 mm | - | - | - |
| 1777088883 | 9.44° C | 91% | 1015.4 hPa | 0 mm | - | - | - |
| 1777086136 | 10° C | 91% | 1015.6 hPa | 0 mm | - | - | - |
| 1777085764 | 10° C | 92% | 1015.7 hPa | 0 mm | - | - | - |
| 1777085284 | 10° C | 92% | 1015.5 hPa | 0 mm | - | - | - |
| 1777085044 | 10° C | 92% | 1015.5 hPa | 0 mm | - | - | - |
| 1777084083 | 10° C | 91% | 1015.5 hPa | 0 mm | - | - | - |
| 1777079523 | 10.56° C | 91% | 1015.4 hPa | 0 mm | - | - | - |
| 1777078563 | 10.56° C | 91% | 1015.5 hPa | 0 mm | - | - | - |
| 1777077843 | 10.56° C | 91% | 1015.5 hPa | 0 mm | - | - | - |
* Rain latest hour (hover to see other rain measurements)
** Current wind speed in m/s (hover to see current wind gust speed)